sensor_id;sensor_type;location;lat;lon;timestamp;P1;durP1;ratioP1;P2;durP2;ratioP2
25946;SDS011;13745;51.470;9.894;2024-02-15T00:01:28;3.97;;;2.00;;
25946;SDS011;13745;51.470;9.894;2024-02-15T00:04:14;2.50;;;2.30;;
25946;SDS011;13745;51.470;9.894;2024-02-15T00:07:00;6.18;;;2.50;;
25946;SDS011;13745;51.470;9.894;2024-02-15T00:09:45;3.22;;;2.42;;
25946;SDS011;13745;51.470;9.894;2024-02-15T00:12:30;3.30;;;2.78;;
25946;SDS011;13745;51.470;9.894;2024-02-15T00:15:18;2.83;;;2.58;;
25946;SDS011;13745;51.470;9.894;2024-02-15T00:18:04;3.03;;;2.75;;
25946;SDS011;13745;51.470;9.894;2024-02-15T00:20:49;2.42;;;2.22;;
25946;SDS011;13745;51.470;9.894;2024-02-15T00:23:34;2.85;;;2.50;;
25946;SDS011;13745;51.470;9.894;2024-02-15T00:26:19;2.50;;;2.30;;
25946;SDS011;13745;51.470;9.894;2024-02-15T00:29:05;2.97;;;2.70;;
25946;SDS011;13745;51.470;9.894;2024-02-15T00:31:51;3.35;;;3.05;;
25946;SDS011;13745;51.470;9.894;2024-02-15T00:34:36;2.63;;;2.42;;
25946;SDS011;13745;51.470;9.894;2024-02-15T00:37:22;2.72;;;2.40;;
25946;SDS011;13745;51.470;9.894;2024-02-15T00:40:07;2.40;;;2.20;;
25946;SDS011;13745;51.470;9.894;2024-02-15T00:42:53;3.03;;;2.40;;
25946;SDS011;13745;51.470;9.894;2024-02-15T00:45:39;4.50;;;2.83;;
25946;SDS011;13745;51.470;9.894;2024-02-15T00:48:26;2.22;;;2.03;;
25946;SDS011;13745;51.470;9.894;2024-02-15T00:51:12;2.92;;;2.10;;
25946;SDS011;13745;51.470;9.894;2024-02-15T00:53:57;2.78;;;2.58;;
25946;SDS011;13745;51.470;9.894;2024-02-15T00:56:42;2.67;;;2.47;;
25946;SDS011;13745;51.470;9.894;2024-02-15T00:59:27;2.33;;;2.13;;
25946;SDS011;13745;51.470;9.894;2024-02-15T01:02:12;2.63;;;2.42;;
25946;SDS011;13745;51.470;9.894;2024-02-15T01:04:59;3.70;;;2.40;;
25946;SDS011;13745;51.470;9.894;2024-02-15T01:07:44;2.53;;;2.33;;
25946;SDS011;13745;51.470;9.894;2024-02-15T01:10:32;2.67;;;2.47;;
25946;SDS011;13745;51.470;9.894;2024-02-15T01:13:17;2.92;;;2.28;;
25946;SDS011;13745;51.470;9.894;2024-02-15T01:16:03;2.97;;;2.63;;
25946;SDS011;13745;51.470;9.894;2024-02-15T01:18:49;2.58;;;1.92;;
25946;SDS011;13745;51.470;9.894;2024-02-15T01:21:35;2.65;;;2.45;;
25946;SDS011;13745;51.470;9.894;2024-02-15T01:24:20;2.50;;;2.30;;
25946;SDS011;13745;51.470;9.894;2024-02-15T01:27:05;2.55;;;2.35;;
25946;SDS011;13745;51.470;9.894;2024-02-15T01:29:51;2.40;;;2.20;;
25946;SDS011;13745;51.470;9.894;2024-02-15T01:32:36;2.72;;;2.53;;
25946;SDS011;13745;51.470;9.894;2024-02-15T01:35:24;2.92;;;2.72;;
25946;SDS011;13745;51.470;9.894;2024-02-15T01:38:11;2.85;;;2.40;;
25946;SDS011;13745;51.470;9.894;2024-02-15T01:40:57;3.03;;;2.40;;
25946;SDS011;13745;51.470;9.894;2024-02-15T01:43:43;3.08;;;2.67;;
25946;SDS011;13745;51.470;9.894;2024-02-15T01:46:28;2.47;;;2.28;;
25946;SDS011;13745;51.470;9.894;2024-02-15T01:49:15;2.30;;;2.10;;
25946;SDS011;13745;51.470;9.894;2024-02-15T01:52:00;2.60;;;2.40;;
25946;SDS011;13745;51.470;9.894;2024-02-15T01:54:48;2.78;;;2.35;;
25946;SDS011;13745;51.470;9.894;2024-02-15T01:57:35;2.63;;;2.42;;
25946;SDS011;13745;51.470;9.894;2024-02-15T02:00:22;2.47;;;2.28;;
25946;SDS011;13745;51.470;9.894;2024-02-15T02:03:08;2.60;;;2.38;;
25946;SDS011;13745;51.470;9.894;2024-02-15T02:05:55;2.92;;;2.17;;
25946;SDS011;13745;51.470;9.894;2024-02-15T02:08:41;2.80;;;1.70;;
25946;SDS011;13745;51.470;9.894;2024-02-15T02:11:27;2.03;;;1.83;;
25946;SDS011;13745;51.470;9.894;2024-02-15T02:14:13;2.40;;;2.13;;
25946;SDS011;13745;51.470;9.894;2024-02-15T02:17:10;2.03;;;1.90;;
25946;SDS011;13745;51.470;9.894;2024-02-15T02:19:55;2.55;;;2.33;;
25946;SDS011;13745;51.470;9.894;2024-02-15T02:22:41;2.47;;;2.22;;
25946;SDS011;13745;51.470;9.894;2024-02-15T02:25:30;2.72;;;2.40;;
25946;SDS011;13745;51.470;9.894;2024-02-15T02:28:16;2.30;;;2.10;;
25946;SDS011;13745;51.470;9.894;2024-02-15T02:31:01;2.60;;;2.33;;
25946;SDS011;13745;51.470;9.894;2024-02-15T02:33:47;3.75;;;2.50;;
25946;SDS011;13745;51.470;9.894;2024-02-15T02:36:35;2.25;;;2.03;;
25946;SDS011;13745;51.470;9.894;2024-02-15T02:39:21;2.63;;;2.00;;
25946;SDS011;13745;51.470;9.894;2024-02-15T02:42:09;2.45;;;2.20;;
25946;SDS011;13745;51.470;9.894;2024-02-15T02:44:54;1.70;;;1.60;;
25946;SDS011;13745;51.470;9.894;2024-02-15T02:47:39;2.13;;;1.83;;
25946;SDS011;13745;51.470;9.894;2024-02-15T02:50:24;2.30;;;2.10;;
25946;SDS011;13745;51.470;9.894;2024-02-15T02:53:10;2.13;;;1.92;;
25946;SDS011;13745;51.470;9.894;2024-02-15T02:55:56;2.50;;;1.92;;
25946;SDS011;13745;51.470;9.894;2024-02-15T02:58:43;2.15;;;1.95;;
25946;SDS011;13745;51.470;9.894;2024-02-15T03:01:28;2.42;;;2.17;;
25946;SDS011;13745;51.470;9.894;2024-02-15T03:04:14;2.20;;;2.00;;
25946;SDS011;13745;51.470;9.894;2024-02-15T03:07:00;4.93;;;2.10;;
25946;SDS011;13745;51.470;9.894;2024-02-15T03:09:45;1.83;;;1.48;;
25946;SDS011;13745;51.470;9.894;2024-02-15T03:12:30;3.83;;;2.33;;
25946;SDS011;13745;51.470;9.894;2024-02-15T03:15:20;1.50;;;1.40;;
25946;SDS011;13745;51.470;9.894;2024-02-15T03:18:06;2.30;;;2.10;;
25946;SDS011;13745;51.470;9.894;2024-02-15T03:20:52;2.60;;;1.90;;
25946;SDS011;13745;51.470;9.894;2024-02-15T03:23:37;2.33;;;2.13;;
25946;SDS011;13745;51.470;9.894;2024-02-15T03:26:28;4.13;;;2.42;;
25946;SDS011;13745;51.470;9.894;2024-02-15T03:29:15;2.30;;;2.00;;
25946;SDS011;13745;51.470;9.894;2024-02-15T03:32:01;2.20;;;2.00;;
25946;SDS011;13745;51.470;9.894;2024-02-15T03:34:47;2.20;;;2.00;;
25946;SDS011;13745;51.470;9.894;2024-02-15T03:37:32;2.17;;;1.67;;
25946;SDS011;13745;51.470;9.894;2024-02-15T03:40:21;2.13;;;1.88;;
25946;SDS011;13745;51.470;9.894;2024-02-15T03:43:07;3.35;;;2.10;;
25946;SDS011;13745;51.470;9.894;2024-02-15T03:45:52;5.05;;;2.40;;
25946;SDS011;13745;51.470;9.894;2024-02-15T03:48:40;2.92;;;2.03;;
25946;SDS011;13745;51.470;9.894;2024-02-15T03:51:27;4.45;;;2.00;;
25946;SDS011;13745;51.470;9.894;2024-02-15T03:54:12;3.92;;;2.55;;
25946;SDS011;13745;51.470;9.894;2024-02-15T03:56:58;5.03;;;2.45;;
25946;SDS011;13745;51.470;9.894;2024-02-15T03:59:43;5.45;;;2.30;;
25946;SDS011;13745;51.470;9.894;2024-02-15T04:02:31;3.67;;;2.28;;
25946;SDS011;13745;51.470;9.894;2024-02-15T04:05:17;2.80;;;2.55;;
25946;SDS011;13745;51.470;9.894;2024-02-15T04:08:02;4.38;;;2.70;;
25946;SDS011;13745;51.470;9.894;2024-02-15T04:10:49;4.70;;;2.70;;
25946;SDS011;13745;51.470;9.894;2024-02-15T04:13:34;3.63;;;2.53;;
25946;SDS011;13745;51.470;9.894;2024-02-15T04:16:20;3.75;;;2.80;;
25946;SDS011;13745;51.470;9.894;2024-02-15T04:19:05;5.88;;;2.78;;
25946;SDS011;13745;51.470;9.894;2024-02-15T04:21:51;4.15;;;2.28;;
25946;SDS011;13745;51.470;9.894;2024-02-15T04:24:36;4.25;;;2.90;;
25946;SDS011;13745;51.470;9.894;2024-02-15T04:27:23;3.75;;;2.70;;
25946;SDS011;13745;51.470;9.894;2024-02-15T04:30:09;5.35;;;3.20;;
25946;SDS011;13745;51.470;9.894;2024-02-15T04:32:55;5.10;;;2.67;;
25946;SDS011;13745;51.470;9.894;2024-02-15T04:35:41;5.38;;;2.78;;
25946;SDS011;13745;51.470;9.894;2024-02-15T04:38:28;3.40;;;2.67;;
25946;SDS011;13745;51.470;9.894;2024-02-15T04:41:13;4.85;;;2.65;;
25946;SDS011;13745;51.470;9.894;2024-02-15T04:43:58;6.90;;;3.10;;
25946;SDS011;13745;51.470;9.894;2024-02-15T04:46:43;3.08;;;2.88;;
25946;SDS011;13745;51.470;9.894;2024-02-15T04:49:29;3.00;;;2.45;;
25946;SDS011;13745;51.470;9.894;2024-02-15T04:52:14;4.20;;;2.60;;
25946;SDS011;13745;51.470;9.894;2024-02-15T04:55:02;4.72;;;3.08;;
25946;SDS011;13745;51.470;9.894;2024-02-15T04:57:49;3.33;;;3.00;;
25946;SDS011;13745;51.470;9.894;2024-02-15T05:00:38;4.85;;;2.60;;
25946;SDS011;13745;51.470;9.894;2024-02-15T05:03:23;3.28;;;2.97;;
25946;SDS011;13745;51.470;9.894;2024-02-15T05:06:08;3.17;;;2.80;;
25946;SDS011;13745;51.470;9.894;2024-02-15T05:08:53;4.57;;;2.80;;
25946;SDS011;13745;51.470;9.894;2024-02-15T05:11:41;2.95;;;2.58;;
25946;SDS011;13745;51.470;9.894;2024-02-15T05:14:30;5.80;;;2.55;;
25946;SDS011;13745;51.470;9.894;2024-02-15T05:17:15;3.00;;;2.60;;
25946;SDS011;13745;51.470;9.894;2024-02-15T05:20:00;3.03;;;2.60;;
25946;SDS011;13745;51.470;9.894;2024-02-15T05:22:48;3.88;;;2.45;;
25946;SDS011;13745;51.470;9.894;2024-02-15T05:25:32;5.03;;;2.65;;
25946;SDS011;13745;51.470;9.894;2024-02-15T05:28:20;4.38;;;2.67;;
25946;SDS011;13745;51.470;9.894;2024-02-15T05:31:11;5.00;;;2.63;;
25946;SDS011;13745;51.470;9.894;2024-02-15T05:33:58;3.42;;;2.40;;
25946;SDS011;13745;51.470;9.894;2024-02-15T05:36:43;5.10;;;2.88;;
25946;SDS011;13745;51.470;9.894;2024-02-15T05:39:28;4.63;;;2.47;;
25946;SDS011;13745;51.470;9.894;2024-02-15T05:42:12;4.07;;;2.42;;
25946;SDS011;13745;51.470;9.894;2024-02-15T05:48:16;4.32;;;2.95;;
25946;SDS011;13745;51.470;9.894;2024-02-15T05:51:01;5.50;;;2.75;;
25946;SDS011;13745;51.470;9.894;2024-02-15T05:53:46;6.95;;;3.80;;
25946;SDS011;13745;51.470;9.894;2024-02-15T05:56:32;4.20;;;2.70;;
25946;SDS011;13745;51.470;9.894;2024-02-15T05:59:18;5.68;;;3.58;;
25946;SDS011;13745;51.470;9.894;2024-02-15T06:02:05;4.45;;;3.40;;
25946;SDS011;13745;51.470;9.894;2024-02-15T06:04:51;7.53;;;3.30;;
25946;SDS011;13745;51.470;9.894;2024-02-15T06:07:37;6.32;;;3.70;;
25946;SDS011;13745;51.470;9.894;2024-02-15T06:10:23;7.03;;;3.60;;
25946;SDS011;13745;51.470;9.894;2024-02-15T06:13:09;5.93;;;3.55;;
25946;SDS011;13745;51.470;9.894;2024-02-15T06:15:54;6.05;;;3.15;;
25946;SDS011;13745;51.470;9.894;2024-02-15T06:18:40;4.25;;;3.10;;
25946;SDS011;13745;51.470;9.894;2024-02-15T06:21:25;5.35;;;3.40;;
25946;SDS011;13745;51.470;9.894;2024-02-15T06:24:11;4.18;;;3.00;;
25946;SDS011;13745;51.470;9.894;2024-02-15T06:26:56;4.25;;;2.80;;
25946;SDS011;13745;51.470;9.894;2024-02-15T06:29:43;3.78;;;2.67;;
25946;SDS011;13745;51.470;9.894;2024-02-15T06:32:46;3.63;;;3.20;;
25946;SDS011;13745;51.470;9.894;2024-02-15T06:35:50;3.83;;;3.10;;
25946;SDS011;13745;51.470;9.894;2024-02-15T06:38:53;4.82;;;3.42;;
25946;SDS011;13745;51.470;9.894;2024-02-15T06:41:56;4.38;;;3.20;;
25946;SDS011;13745;51.470;9.894;2024-02-15T06:44:41;9.07;;;3.72;;
25946;SDS011;13745;51.470;9.894;2024-02-15T06:47:26;3.92;;;3.53;;
25946;SDS011;13745;51.470;9.894;2024-02-15T06:50:11;5.60;;;3.10;;
25946;SDS011;13745;51.470;9.894;2024-02-15T06:52:58;4.88;;;3.67;;
25946;SDS011;13745;51.470;9.894;2024-02-15T06:55:43;3.72;;;3.38;;
25946;SDS011;13745;51.470;9.894;2024-02-15T06:58:30;4.88;;;3.58;;
25946;SDS011;13745;51.470;9.894;2024-02-15T07:01:15;3.65;;;3.03;;
25946;SDS011;13745;51.470;9.894;2024-02-15T07:04:01;4.90;;;3.03;;
25946;SDS011;13745;51.470;9.894;2024-02-15T07:06:47;5.30;;;2.83;;
25946;SDS011;13745;51.470;9.894;2024-02-15T07:09:34;4.32;;;2.33;;
25946;SDS011;13745;51.470;9.894;2024-02-15T07:12:20;4.30;;;2.90;;
25946;SDS011;13745;51.470;9.894;2024-02-15T07:15:05;3.28;;;2.70;;
25946;SDS011;13745;51.470;9.894;2024-02-15T07:17:52;4.18;;;2.70;;
25946;SDS011;13745;51.470;9.894;2024-02-15T07:20:38;5.93;;;3.03;;
25946;SDS011;13745;51.470;9.894;2024-02-15T07:23:23;3.10;;;2.80;;
25946;SDS011;13745;51.470;9.894;2024-02-15T07:26:10;4.70;;;3.65;;
25946;SDS011;13745;51.470;9.894;2024-02-15T07:28:56;5.55;;;3.97;;
25946;SDS011;13745;51.470;9.894;2024-02-15T07:31:42;5.65;;;2.63;;
25946;SDS011;13745;51.470;9.894;2024-02-15T07:34:27;5.88;;;2.63;;
25946;SDS011;13745;51.470;9.894;2024-02-15T07:37:12;4.50;;;2.42;;
25946;SDS011;13745;51.470;9.894;2024-02-15T07:39:58;6.38;;;2.55;;
25946;SDS011;13745;51.470;9.894;2024-02-15T07:42:45;5.85;;;2.35;;
25946;SDS011;13745;51.470;9.894;2024-02-15T07:45:31;3.45;;;1.98;;
25946;SDS011;13745;51.470;9.894;2024-02-15T07:48:18;5.22;;;1.92;;
25946;SDS011;13745;51.470;9.894;2024-02-15T07:51:03;6.97;;;2.88;;
25946;SDS011;13745;51.470;9.894;2024-02-15T07:53:50;5.85;;;3.08;;
25946;SDS011;13745;51.470;9.894;2024-02-15T07:56:35;2.70;;;2.25;;
25946;SDS011;13745;51.470;9.894;2024-02-15T07:59:21;7.97;;;2.45;;
25946;SDS011;13745;51.470;9.894;2024-02-15T08:02:06;6.88;;;2.65;;
25946;SDS011;13745;51.470;9.894;2024-02-15T08:04:51;6.30;;;3.00;;
25946;SDS011;13745;51.470;9.894;2024-02-15T08:07:37;7.55;;;2.47;;
25946;SDS011;13745;51.470;9.894;2024-02-15T08:10:23;3.88;;;2.72;;
25946;SDS011;13745;51.470;9.894;2024-02-15T08:13:08;3.33;;;2.47;;
25946;SDS011;13745;51.470;9.894;2024-02-15T08:15:54;4.28;;;2.40;;
25946;SDS011;13745;51.470;9.894;2024-02-15T08:18:40;4.00;;;2.22;;
25946;SDS011;13745;51.470;9.894;2024-02-15T08:21:27;4.50;;;2.95;;
25946;SDS011;13745;51.470;9.894;2024-02-15T08:24:16;5.20;;;2.50;;
25946;SDS011;13745;51.470;9.894;2024-02-15T08:27:01;5.70;;;3.25;;
25946;SDS011;13745;51.470;9.894;2024-02-15T08:29:48;5.18;;;2.92;;
25946;SDS011;13745;51.470;9.894;2024-02-15T08:32:35;5.60;;;3.60;;
25946;SDS011;13745;51.470;9.894;2024-02-15T08:35:20;4.88;;;3.10;;
25946;SDS011;13745;51.470;9.894;2024-02-15T08:38:05;5.45;;;3.42;;
25946;SDS011;13745;51.470;9.894;2024-02-15T08:40:51;8.60;;;3.60;;
25946;SDS011;13745;51.470;9.894;2024-02-15T08:43:36;6.80;;;3.80;;
25946;SDS011;13745;51.470;9.894;2024-02-15T08:46:23;6.07;;;3.08;;
25946;SDS011;13745;51.470;9.894;2024-02-15T08:49:10;3.30;;;2.88;;
25946;SDS011;13745;51.470;9.894;2024-02-15T08:51:57;6.88;;;3.17;;
25946;SDS011;13745;51.470;9.894;2024-02-15T08:54:42;5.18;;;3.30;;
25946;SDS011;13745;51.470;9.894;2024-02-15T08:57:27;4.35;;;3.20;;
25946;SDS011;13745;51.470;9.894;2024-02-15T09:00:13;4.93;;;3.13;;
25946;SDS011;13745;51.470;9.894;2024-02-15T09:02:59;3.88;;;3.22;;
25946;SDS011;13745;51.470;9.894;2024-02-15T09:05:46;5.63;;;3.53;;
25946;SDS011;13745;51.470;9.894;2024-02-15T09:08:31;5.30;;;3.47;;
25946;SDS011;13745;51.470;9.894;2024-02-15T09:11:16;6.47;;;3.53;;
25946;SDS011;13745;51.470;9.894;2024-02-15T09:14:02;7.95;;;3.63;;
25946;SDS011;13745;51.470;9.894;2024-02-15T09:16:47;5.28;;;3.97;;
25946;SDS011;13745;51.470;9.894;2024-02-15T09:19:32;6.38;;;3.30;;
25946;SDS011;13745;51.470;9.894;2024-02-15T09:22:19;4.88;;;2.97;;
25946;SDS011;13745;51.470;9.894;2024-02-15T09:25:04;5.13;;;3.30;;
25946;SDS011;13745;51.470;9.894;2024-02-15T09:27:50;5.47;;;3.60;;
25946;SDS011;13745;51.470;9.894;2024-02-15T09:30:37;6.75;;;3.10;;
25946;SDS011;13745;51.470;9.894;2024-02-15T09:33:22;3.58;;;3.08;;
25946;SDS011;13745;51.470;9.894;2024-02-15T09:36:07;6.07;;;3.30;;
25946;SDS011;13745;51.470;9.894;2024-02-15T09:38:54;4.25;;;2.97;;
25946;SDS011;13745;51.470;9.894;2024-02-15T09:41:39;4.47;;;2.75;;
25946;SDS011;13745;51.470;9.894;2024-02-15T09:44:26;4.35;;;2.70;;
25946;SDS011;13745;51.470;9.894;2024-02-15T09:47:12;3.85;;;1.88;;
25946;SDS011;13745;51.470;9.894;2024-02-15T09:50:00;4.60;;;2.30;;
25946;SDS011;13745;51.470;9.894;2024-02-15T09:52:49;4.38;;;2.33;;
25946;SDS011;13745;51.470;9.894;2024-02-15T09:55:36;4.80;;;2.10;;
25946;SDS011;13745;51.470;9.894;2024-02-15T09:58:25;5.22;;;2.72;;
25946;SDS011;13745;51.470;9.894;2024-02-15T10:01:10;4.43;;;2.67;;
25946;SDS011;13745;51.470;9.894;2024-02-15T10:03:58;3.67;;;2.53;;
25946;SDS011;13745;51.470;9.894;2024-02-15T10:06:44;6.82;;;2.33;;
25946;SDS011;13745;51.470;9.894;2024-02-15T10:09:29;4.68;;;2.60;;
25946;SDS011;13745;51.470;9.894;2024-02-15T10:12:16;9.70;;;2.17;;
25946;SDS011;13745;51.470;9.894;2024-02-15T10:15:02;5.60;;;2.40;;
25946;SDS011;13745;51.470;9.894;2024-02-15T10:17:53;4.00;;;1.85;;
25946;SDS011;13745;51.470;9.894;2024-02-15T10:20:39;5.60;;;2.88;;
25946;SDS011;13745;51.470;9.894;2024-02-15T10:23:27;4.88;;;1.92;;
25946;SDS011;13745;51.470;9.894;2024-02-15T10:26:19;3.10;;;2.08;;
25946;SDS011;13745;51.470;9.894;2024-02-15T10:29:08;3.92;;;1.75;;
25946;SDS011;13745;51.470;9.894;2024-02-15T10:31:55;2.17;;;1.88;;
25946;SDS011;13745;51.470;9.894;2024-02-15T10:34:45;3.38;;;1.55;;
25946;SDS011;13745;51.470;9.894;2024-02-15T10:37:30;2.67;;;1.92;;
25946;SDS011;13745;51.470;9.894;2024-02-15T10:40:19;5.18;;;1.85;;
25946;SDS011;13745;51.470;9.894;2024-02-15T10:43:06;7.53;;;1.70;;
25946;SDS011;13745;51.470;9.894;2024-02-15T10:45:52;9.23;;;1.92;;
25946;SDS011;13745;51.470;9.894;2024-02-15T10:48:37;7.32;;;2.00;;
25946;SDS011;13745;51.470;9.894;2024-02-15T10:51:23;4.22;;;1.60;;
25946;SDS011;13745;51.470;9.894;2024-02-15T10:54:11;4.47;;;1.70;;
25946;SDS011;13745;51.470;9.894;2024-02-15T10:57:02;3.60;;;2.00;;
25946;SDS011;13745;51.470;9.894;2024-02-15T10:59:53;10.43;;;1.77;;
25946;SDS011;13745;51.470;9.894;2024-02-15T11:02:42;2.83;;;1.30;;
25946;SDS011;13745;51.470;9.894;2024-02-15T11:05:38;4.00;;;1.48;;
25946;SDS011;13745;51.470;9.894;2024-02-15T11:08:27;3.88;;;1.02;;
25946;SDS011;13745;51.470;9.894;2024-02-15T11:11:12;5.28;;;1.35;;
25946;SDS011;13745;51.470;9.894;2024-02-15T11:17:08;4.03;;;1.00;;
25946;SDS011;13745;51.470;9.894;2024-02-15T11:19:55;3.95;;;1.25;;
25946;SDS011;13745;51.470;9.894;2024-02-15T11:22:41;4.72;;;1.20;;
25946;SDS011;13745;51.470;9.894;2024-02-15T11:25:31;3.45;;;1.15;;
25946;SDS011;13745;51.470;9.894;2024-02-15T11:34:46;3.72;;;1.45;;
25946;SDS011;13745;51.470;9.894;2024-02-15T11:37:54;2.95;;;1.42;;
25946;SDS011;13745;51.470;9.894;2024-02-15T11:43:56;4.65;;;1.40;;
25946;SDS011;13745;51.470;9.894;2024-02-15T11:46:41;4.57;;;1.48;;
25946;SDS011;13745;51.470;9.894;2024-02-15T11:49:27;2.90;;;1.20;;
25946;SDS011;13745;51.470;9.894;2024-02-15T11:52:13;3.47;;;1.17;;
25946;SDS011;13745;51.470;9.894;2024-02-15T11:55:05;5.32;;;1.45;;
25946;SDS011;13745;51.470;9.894;2024-02-15T11:57:54;2.78;;;1.40;;
25946;SDS011;13745;51.470;9.894;2024-02-15T12:00:46;7.05;;;1.50;;
25946;SDS011;13745;51.470;9.894;2024-02-15T12:03:51;2.80;;;1.52;;
25946;SDS011;13745;51.470;9.894;2024-02-15T12:06:56;6.13;;;1.60;;
25946;SDS011;13745;51.470;9.894;2024-02-15T12:09:59;4.85;;;1.20;;
25946;SDS011;13745;51.470;9.894;2024-02-15T12:13:04;1.80;;;0.93;;
25946;SDS011;13745;51.470;9.894;2024-02-15T12:16:08;4.75;;;1.08;;
25946;SDS011;13745;51.470;9.894;2024-02-15T12:19:10;5.07;;;1.70;;
25946;SDS011;13745;51.470;9.894;2024-02-15T12:21:56;5.10;;;1.48;;
25946;SDS011;13745;51.470;9.894;2024-02-15T12:24:42;5.57;;;1.23;;
25946;SDS011;13745;51.470;9.894;2024-02-15T12:27:28;2.17;;;1.20;;
25946;SDS011;13745;51.470;9.894;2024-02-15T12:30:16;3.50;;;1.83;;
25946;SDS011;13745;51.470;9.894;2024-02-15T12:33:08;4.40;;;1.52;;
25946;SDS011;13745;51.470;9.894;2024-02-15T12:36:03;2.95;;;1.52;;
25946;SDS011;13745;51.470;9.894;2024-02-15T12:38:58;6.28;;;2.30;;
25946;SDS011;13745;51.470;9.894;2024-02-15T12:41:47;3.67;;;1.50;;
25946;SDS011;13745;51.470;9.894;2024-02-15T12:44:33;3.08;;;1.30;;
25946;SDS011;13745;51.470;9.894;2024-02-15T12:47:21;5.43;;;1.80;;
25946;SDS011;13745;51.470;9.894;2024-02-15T12:50:13;5.00;;;1.70;;
25946;SDS011;13745;51.470;9.894;2024-02-15T12:52:58;3.00;;;1.42;;
25946;SDS011;13745;51.470;9.894;2024-02-15T12:55:45;4.72;;;1.45;;
25946;SDS011;13745;51.470;9.894;2024-02-15T12:58:38;3.10;;;1.42;;
25946;SDS011;13745;51.470;9.894;2024-02-15T13:01:23;2.53;;;1.70;;
25946;SDS011;13745;51.470;9.894;2024-02-15T13:04:23;5.18;;;1.30;;
25946;SDS011;13745;51.470;9.894;2024-02-15T13:07:10;5.03;;;1.60;;
25946;SDS011;13745;51.470;9.894;2024-02-15T13:09:55;5.95;;;1.73;;
25946;SDS011;13745;51.470;9.894;2024-02-15T13:12:40;5.10;;;1.60;;
25946;SDS011;13745;51.470;9.894;2024-02-15T13:15:26;3.30;;;1.70;;
25946;SDS011;13745;51.470;9.894;2024-02-15T13:18:16;7.45;;;1.45;;
25946;SDS011;13745;51.470;9.894;2024-02-15T13:21:02;5.20;;;1.70;;
25946;SDS011;13745;51.470;9.894;2024-02-15T13:23:49;6.47;;;1.55;;
25946;SDS011;13745;51.470;9.894;2024-02-15T13:26:34;6.10;;;1.52;;
25946;SDS011;13745;51.470;9.894;2024-02-15T13:29:20;5.97;;;1.80;;
25946;SDS011;13745;51.470;9.894;2024-02-15T13:32:05;4.35;;;1.90;;
25946;SDS011;13745;51.470;9.894;2024-02-15T13:34:50;7.47;;;2.17;;
25946;SDS011;13745;51.470;9.894;2024-02-15T13:37:41;4.22;;;2.00;;
25946;SDS011;13745;51.470;9.894;2024-02-15T13:40:30;6.43;;;1.90;;
25946;SDS011;13745;51.470;9.894;2024-02-15T13:43:15;5.40;;;1.52;;
25946;SDS011;13745;51.470;9.894;2024-02-15T13:46:00;4.68;;;1.75;;
25946;SDS011;13745;51.470;9.894;2024-02-15T13:48:45;4.63;;;1.88;;
25946;SDS011;13745;51.470;9.894;2024-02-15T13:51:30;4.65;;;2.00;;
25946;SDS011;13745;51.470;9.894;2024-02-15T13:54:20;4.82;;;2.33;;
25946;SDS011;13745;51.470;9.894;2024-02-15T13:57:06;3.55;;;2.33;;
25946;SDS011;13745;51.470;9.894;2024-02-15T13:59:51;6.30;;;2.60;;
25946;SDS011;13745;51.470;9.894;2024-02-15T14:02:36;5.28;;;2.47;;
25946;SDS011;13745;51.470;9.894;2024-02-15T14:05:22;6.60;;;2.50;;
25946;SDS011;13745;51.470;9.894;2024-02-15T14:08:09;4.85;;;3.00;;
25946;SDS011;13745;51.470;9.894;2024-02-15T14:10:56;5.57;;;3.20;;
25946;SDS011;13745;51.470;9.894;2024-02-15T14:13:41;5.88;;;3.10;;
25946;SDS011;13745;51.470;9.894;2024-02-15T14:16:26;5.40;;;2.63;;
25946;SDS011;13745;51.470;9.894;2024-02-15T14:19:12;6.88;;;3.35;;
25946;SDS011;13745;51.470;9.894;2024-02-15T14:21:57;6.85;;;3.30;;
25946;SDS011;13745;51.470;9.894;2024-02-15T14:24:42;3.95;;;3.00;;
25946;SDS011;13745;51.470;9.894;2024-02-15T14:27:29;3.92;;;2.97;;
25946;SDS011;13745;51.470;9.894;2024-02-15T14:30:14;6.88;;;3.25;;
25946;SDS011;13745;51.470;9.894;2024-02-15T14:33:17;7.65;;;3.20;;
25946;SDS011;13745;51.470;9.894;2024-02-15T14:36:03;5.68;;;3.25;;
25946;SDS011;13745;51.470;9.894;2024-02-15T14:38:49;3.85;;;2.85;;
25946;SDS011;13745;51.470;9.894;2024-02-15T14:41:35;6.47;;;2.97;;
25946;SDS011;13745;51.470;9.894;2024-02-15T14:44:23;6.63;;;3.00;;
25946;SDS011;13745;51.470;9.894;2024-02-15T14:47:08;9.57;;;2.83;;
25946;SDS011;13745;51.470;9.894;2024-02-15T14:49:53;5.25;;;2.72;;
25946;SDS011;13745;51.470;9.894;2024-02-15T14:52:39;6.32;;;3.00;;
25946;SDS011;13745;51.470;9.894;2024-02-15T14:55:25;6.32;;;2.70;;
25946;SDS011;13745;51.470;9.894;2024-02-15T14:58:10;5.35;;;2.60;;
25946;SDS011;13745;51.470;9.894;2024-02-15T15:00:58;6.13;;;3.30;;
25946;SDS011;13745;51.470;9.894;2024-02-15T15:03:43;7.55;;;2.15;;
25946;SDS011;13745;51.470;9.894;2024-02-15T15:06:38;4.13;;;2.08;;
25946;SDS011;13745;51.470;9.894;2024-02-15T15:09:41;2.40;;;1.23;;
25946;SDS011;13745;51.470;9.894;2024-02-15T15:12:58;5.15;;;1.73;;
25946;SDS011;13745;51.470;9.894;2024-02-15T15:15:43;4.03;;;1.50;;
25946;SDS011;13745;51.470;9.894;2024-02-15T15:18:31;3.95;;;1.60;;
25946;SDS011;13745;51.470;9.894;2024-02-15T15:21:16;2.90;;;1.50;;
25946;SDS011;13745;51.470;9.894;2024-02-15T15:24:01;2.50;;;1.55;;
25946;SDS011;13745;51.470;9.894;2024-02-15T15:26:47;5.50;;;1.90;;
25946;SDS011;13745;51.470;9.894;2024-02-15T15:29:32;4.40;;;1.40;;
25946;SDS011;13745;51.470;9.894;2024-02-15T15:32:17;7.10;;;1.80;;
25946;SDS011;13745;51.470;9.894;2024-02-15T15:35:04;1.92;;;1.13;;
25946;SDS011;13745;51.470;9.894;2024-02-15T15:37:53;4.30;;;1.35;;
25946;SDS011;13745;51.470;9.894;2024-02-15T15:40:38;5.35;;;1.55;;
25946;SDS011;13745;51.470;9.894;2024-02-15T15:43:23;3.72;;;1.42;;
25946;SDS011;13745;51.470;9.894;2024-02-15T15:46:12;2.85;;;1.52;;
25946;SDS011;13745;51.470;9.894;2024-02-15T15:48:57;3.72;;;1.70;;
25946;SDS011;13745;51.470;9.894;2024-02-15T15:51:44;3.90;;;1.73;;
25946;SDS011;13745;51.470;9.894;2024-02-15T15:54:29;8.77;;;1.70;;
25946;SDS011;13745;51.470;9.894;2024-02-15T15:57:14;4.07;;;1.98;;
25946;SDS011;13745;51.470;9.894;2024-02-15T15:59:59;3.17;;;1.70;;
25946;SDS011;13745;51.470;9.894;2024-02-15T16:02:45;4.93;;;1.73;;
25946;SDS011;13745;51.470;9.894;2024-02-15T16:05:30;6.20;;;1.65;;
25946;SDS011;13745;51.470;9.894;2024-02-15T16:08:17;4.78;;;1.70;;
25946;SDS011;13745;51.470;9.894;2024-02-15T16:11:02;4.18;;;1.70;;
25946;SDS011;13745;51.470;9.894;2024-02-15T16:13:49;3.80;;;1.73;;
25946;SDS011;13745;51.470;9.894;2024-02-15T16:16:34;4.82;;;1.80;;
25946;SDS011;13745;51.470;9.894;2024-02-15T16:19:19;8.43;;;2.03;;
25946;SDS011;13745;51.470;9.894;2024-02-15T16:22:04;4.90;;;1.67;;
25946;SDS011;13745;51.470;9.894;2024-02-15T16:24:51;3.30;;;1.73;;
25946;SDS011;13745;51.470;9.894;2024-02-15T16:27:36;3.13;;;1.52;;
25946;SDS011;13745;51.470;9.894;2024-02-15T16:30:22;2.63;;;1.25;;
25946;SDS011;13745;51.470;9.894;2024-02-15T16:33:07;4.75;;;2.15;;
25946;SDS011;13745;51.470;9.894;2024-02-15T16:35:52;4.65;;;2.05;;
25946;SDS011;13745;51.470;9.894;2024-02-15T16:38:37;5.20;;;2.25;;
25946;SDS011;13745;51.470;9.894;2024-02-15T16:41:24;3.58;;;2.00;;
25946;SDS011;13745;51.470;9.894;2024-02-15T16:44:13;5.53;;;1.92;;
25946;SDS011;13745;51.470;9.894;2024-02-15T16:46:59;6.00;;;2.80;;
25946;SDS011;13745;51.470;9.894;2024-02-15T16:49:45;6.65;;;2.80;;
25946;SDS011;13745;51.470;9.894;2024-02-15T16:52:30;12.27;;;3.90;;
25946;SDS011;13745;51.470;9.894;2024-02-15T16:55:15;11.68;;;6.00;;
25946;SDS011;13745;51.470;9.894;2024-02-15T16:58:04;27.80;;;12.65;;
25946;SDS011;13745;51.470;9.894;2024-02-15T17:00:51;5.18;;;2.65;;
25946;SDS011;13745;51.470;9.894;2024-02-15T17:03:36;9.05;;;4.22;;